Irura, Spain
Current Conditions -  °F | °C
As of 2:30 PM on Saturday 25 Oct 2014 (Local Time) from LESO Reporting Station
Clear Clear  
Wind Chill: 20°   Ceiling: Unl
Heat Index: 20°   Visibility: 6mi
Dew Point: 16°   Wind: 7mph
Humidity: 78%   Direction: 10°N
Pressure: 30.15"   Gusts: NA
Location:  43.17°N, 2.07°W
Report Text: LESO 251230Z 01006KT 330V050 CAVOK 20/16 Q1021
Loading
Personal Weather Stations






























Interactive Weather Map
Tropical Storm Tracking
New forecast layout! Learn more

10-Day Weather Forecast

Advertisements
Track Severe Weather on mobile